createdAt,value
2019-05-26T00:00:27.216Z,11.00
2019-05-26T00:01:29.243Z,11.80
2019-05-26T00:02:27.187Z,10.90
2019-05-26T00:03:27.202Z,11.10
2019-05-26T00:04:27.178Z,10.90
2019-05-26T00:05:27.177Z,10.60
2019-05-26T00:06:27.176Z,11.30
2019-05-26T00:07:30.736Z,10.70
2019-05-26T00:08:27.126Z,11.20
2019-05-26T00:09:27.129Z,11.10
2019-05-26T00:10:27.104Z,11.30
2019-05-26T00:11:27.786Z,10.80
2019-05-26T00:12:27.072Z,11.00
2019-05-26T00:13:27.065Z,11.20
2019-05-26T00:14:27.047Z,11.10
2019-05-26T00:15:27.042Z,10.80
2019-05-26T00:16:27.076Z,11.30
2019-05-26T00:17:27.046Z,11.20
2019-05-26T00:18:27.028Z,11.10
2019-05-26T00:19:27.028Z,11.00
2019-05-26T00:20:27.001Z,11.50
2019-05-26T00:21:27.136Z,11.10
2019-05-26T00:22:26.982Z,11.30
2019-05-26T00:23:27.005Z,12.10
2019-05-26T00:24:26.942Z,11.70
2019-05-26T00:25:26.936Z,11.60
2019-05-26T00:26:28.740Z,12.10
2019-05-26T00:27:26.914Z,11.90
2019-05-26T00:28:26.905Z,11.70
2019-05-26T00:29:26.887Z,11.80
2019-05-26T00:30:26.877Z,12.50
2019-05-26T00:31:26.901Z,11.30
2019-05-26T00:32:26.874Z,11.80
2019-05-26T00:33:26.864Z,12.00
2019-05-26T00:34:26.851Z,12.00
2019-05-26T00:35:26.818Z,11.10
2019-05-26T00:36:26.871Z,11.20
2019-05-26T00:37:26.818Z,11.40
2019-05-26T00:38:26.776Z,12.00
2019-05-26T00:39:26.776Z,11.70
2019-05-26T00:40:26.766Z,11.70
2019-05-26T00:41:26.799Z,11.10
2019-05-26T00:42:26.731Z,11.60
2019-05-26T00:43:26.757Z,11.10
2019-05-26T00:44:26.712Z,11.70
2019-05-26T00:45:26.699Z,11.70
2019-05-26T00:46:27.253Z,11.20
2019-05-26T00:47:26.683Z,11.80
2019-05-26T00:48:26.749Z,12.00
2019-05-26T00:49:26.661Z,11.50
2019-05-26T00:50:26.671Z,12.10
2019-05-26T00:51:28.241Z,11.60
2019-05-26T00:52:26.646Z,11.40
2019-05-26T00:53:26.624Z,12.00
2019-05-26T00:54:26.667Z,11.80
2019-05-26T00:55:26.659Z,12.10
2019-05-26T00:56:26.643Z,12.20
2019-05-26T00:57:26.600Z,12.40
2019-05-26T00:58:26.564Z,11.60
2019-05-26T00:59:26.547Z,11.70
2019-05-26T01:00:26.539Z,11.80
2019-05-26T01:01:27.251Z,11.50
2019-05-26T01:02:26.534Z,11.80
2019-05-26T01:03:26.500Z,12.20
2019-05-26T01:04:26.511Z,12.60
2019-05-26T01:05:26.646Z,12.50
2019-05-26T01:06:26.522Z,11.70
2019-05-26T01:07:26.474Z,12.10
2019-05-26T01:08:26.462Z,12.70
2019-05-26T01:09:26.447Z,12.00
2019-05-26T01:10:26.439Z,11.60
2019-05-26T01:11:26.443Z,11.50
2019-05-26T01:12:26.403Z,12.00
2019-05-26T01:13:26.407Z,11.60
2019-05-26T01:14:26.397Z,11.90
2019-05-26T01:15:26.382Z,11.30
2019-05-26T01:16:26.393Z,12.20
2019-05-26T01:17:26.364Z,12.40
2019-05-26T01:18:26.330Z,12.00
2019-05-26T01:19:26.334Z,12.50
2019-05-26T01:20:26.322Z,12.20
2019-05-26T01:21:27.936Z,11.90
2019-05-26T01:22:26.287Z,12.70
2019-05-26T01:23:26.293Z,12.10
2019-05-26T01:24:26.309Z,13.30
2019-05-26T01:25:26.252Z,13.40
2019-05-26T01:26:28.233Z,12.20
2019-05-26T01:27:26.235Z,13.20
2019-05-26T01:28:26.228Z,13.10
2019-05-26T01:29:26.210Z,13.00
2019-05-26T01:30:26.196Z,12.70
2019-05-26T01:31:26.240Z,13.30
2019-05-26T01:32:26.178Z,12.80
2019-05-26T01:33:26.183Z,13.50
2019-05-26T01:34:26.160Z,13.50
2019-05-26T01:35:26.155Z,11.80
2019-05-26T01:36:26.220Z,13.20
2019-05-26T01:37:26.122Z,12.20
2019-05-26T01:38:26.105Z,13.00
2019-05-26T01:39:26.166Z,12.90
2019-05-26T01:40:26.094Z,12.70
2019-05-26T01:41:26.750Z,12.60
2019-05-26T01:42:26.075Z,13.10
2019-05-26T01:43:26.071Z,13.10
2019-05-26T01:44:26.076Z,13.30
2019-05-26T01:45:26.041Z,12.90
2019-05-26T01:46:26.063Z,13.00
2019-05-26T01:47:26.004Z,11.70
2019-05-26T01:48:26.031Z,13.00
2019-05-26T01:49:25.995Z,13.20
2019-05-26T01:50:25.973Z,13.40
2019-05-26T01:51:26.028Z,12.40
2019-05-26T01:52:25.996Z,13.00
2019-05-26T01:53:25.959Z,12.10
2019-05-26T01:54:25.998Z,12.60
2019-05-26T01:55:25.926Z,12.60
2019-05-26T01:56:25.957Z,11.90
2019-05-26T01:57:25.902Z,12.50
2019-05-26T01:58:25.911Z,12.90
2019-05-26T01:59:25.930Z,12.60
2019-05-26T02:00:25.871Z,13.00
2019-05-26T02:01:25.881Z,12.30
2019-05-26T02:02:25.837Z,13.20
2019-05-26T02:03:25.834Z,13.40
2019-05-26T02:04:25.848Z,12.00
2019-05-26T02:05:25.842Z,13.20
2019-05-26T02:06:25.830Z,12.10
2019-05-26T02:07:25.799Z,13.00
2019-05-26T02:08:38.359Z,12.60
2019-05-26T02:09:26.832Z,12.90
2019-05-26T02:10:25.758Z,12.80
2019-05-26T02:11:25.774Z,12.60
2019-05-26T02:12:25.739Z,12.40
2019-05-26T02:13:25.742Z,12.10
2019-05-26T02:14:25.722Z,11.90
2019-05-26T02:15:25.714Z,12.30
2019-05-26T02:16:25.696Z,12.90
2019-05-26T02:17:25.721Z,12.60
2019-05-26T02:18:25.655Z,13.50
2019-05-26T02:19:25.671Z,13.60
2019-05-26T02:20:25.654Z,13.10
2019-05-26T02:21:25.638Z,12.60
2019-05-26T02:22:25.687Z,12.70
2019-05-26T02:23:25.633Z,12.80
2019-05-26T02:24:25.605Z,13.20
2019-05-26T02:25:25.595Z,13.20
2019-05-26T02:26:25.571Z,12.90
2019-05-26T02:27:25.603Z,13.50
2019-05-26T02:28:25.579Z,13.70
2019-05-26T02:29:25.531Z,13.90
2019-05-26T02:30:25.558Z,14.40
2019-05-26T02:31:25.536Z,14.20
2019-05-26T02:32:25.546Z,14.60
2019-05-26T02:33:25.509Z,14.90
2019-05-26T02:34:25.510Z,14.70
2019-05-26T02:35:25.477Z,14.40
2019-05-26T02:36:25.486Z,14.70
2019-05-26T02:37:25.505Z,14.60
2019-05-26T02:38:26.498Z,15.30
2019-05-26T02:39:25.434Z,15.10
2019-05-26T02:40:25.453Z,15.70
2019-05-26T02:41:25.406Z,15.70
2019-05-26T02:42:25.458Z,14.80
2019-05-26T02:43:25.436Z,14.90
2019-05-26T02:44:25.388Z,14.90
2019-05-26T02:45:25.365Z,15.10
2019-05-26T02:46:25.345Z,15.60
2019-05-26T02:47:25.405Z,15.20
2019-05-26T02:48:25.341Z,14.90
2019-05-26T02:49:25.327Z,14.90
2019-05-26T02:50:25.330Z,15.90
2019-05-26T02:51:25.305Z,15.90
2019-05-26T02:52:25.310Z,15.70
2019-05-26T02:53:25.347Z,14.80
2019-05-26T02:54:25.265Z,14.90
2019-05-26T02:55:25.271Z,15.50
2019-05-26T02:56:25.259Z,16.00
2019-05-26T02:57:25.257Z,14.60
2019-05-26T02:58:25.221Z,15.80
2019-05-26T02:59:25.203Z,15.60
2019-05-26T03:00:25.190Z,15.30
2019-05-26T03:01:25.208Z,16.20
2019-05-26T03:02:25.231Z,15.60
2019-05-26T03:03:25.289Z,15.70
2019-05-26T03:04:25.203Z,15.60
2019-05-26T03:05:25.152Z,15.80
2019-05-26T03:06:25.144Z,15.70
2019-05-26T03:07:25.152Z,16.20
2019-05-26T03:08:25.133Z,15.30
2019-05-26T03:09:25.146Z,16.30
2019-05-26T03:10:25.080Z,15.90
2019-05-26T03:11:25.139Z,16.20
2019-05-26T03:12:25.094Z,16.70
2019-05-26T03:13:25.057Z,16.20
2019-05-26T03:14:25.099Z,16.40
2019-05-26T03:15:25.037Z,17.00
2019-05-26T03:16:25.016Z,16.30
2019-05-26T03:17:25.027Z,17.30
2019-05-26T03:18:25.001Z,17.10
2019-05-26T03:19:25.065Z,17.00
2019-05-26T03:20:25.028Z,16.40
2019-05-26T03:21:25.013Z,15.90
2019-05-26T03:22:25.122Z,16.40
2019-05-26T03:23:24.954Z,17.40
2019-05-26T03:24:24.931Z,17.40
2019-05-26T03:25:24.913Z,17.40
2019-05-26T03:26:24.916Z,17.30
2019-05-26T03:27:24.935Z,17.20
2019-05-26T03:28:24.883Z,18.00
2019-05-26T03:29:24.867Z,16.70
2019-05-26T03:30:25.893Z,16.80
2019-05-26T03:31:24.844Z,17.70
2019-05-26T03:32:24.911Z,17.30
2019-05-26T03:33:24.934Z,17.20
2019-05-26T03:34:24.846Z,17.20
2019-05-26T03:35:24.800Z,16.70
2019-05-26T03:36:24.798Z,17.60
2019-05-26T03:37:24.801Z,17.60
2019-05-26T03:38:24.766Z,17.60
2019-05-26T03:39:42.327Z,18.10
2019-05-26T03:40:25.750Z,17.90
2019-05-26T03:41:24.734Z,17.80
2019-05-26T03:42:25.874Z,18.30
2019-05-26T03:43:24.744Z,16.90
2019-05-26T03:44:24.763Z,17.60
2019-05-26T03:45:24.698Z,17.80
2019-05-26T03:46:24.705Z,17.30
2019-05-26T03:47:24.689Z,17.80
2019-05-26T03:48:24.657Z,17.60
2019-05-26T03:49:24.654Z,18.40
2019-05-26T03:50:24.646Z,18.10
2019-05-26T03:51:24.634Z,17.80
2019-05-26T03:52:24.643Z,17.70
2019-05-26T03:53:24.608Z,18.70
2019-05-26T03:54:24.649Z,18.20
2019-05-26T03:55:24.601Z,19.10
2019-05-26T03:56:24.568Z,18.40
2019-05-26T03:57:25.294Z,19.00
2019-05-26T03:58:24.595Z,18.70
2019-05-26T03:59:24.536Z,20.40
2019-05-26T04:00:24.531Z,19.10
2019-05-26T04:01:24.508Z,19.60
2019-05-26T04:02:24.546Z,19.20
2019-05-26T04:03:24.486Z,20.40
2019-05-26T04:04:24.469Z,20.30
2019-05-26T04:05:24.459Z,20.20
2019-05-26T04:06:24.458Z,20.20
2019-05-26T04:07:24.482Z,20.30
2019-05-26T04:08:24.445Z,19.60
2019-05-26T04:09:24.464Z,19.80
2019-05-26T04:10:24.427Z,19.80
2019-05-26T04:11:24.468Z,19.60
2019-05-26T04:12:24.442Z,21.10
2019-05-26T04:13:24.417Z,19.50
2019-05-26T04:14:24.396Z,21.30
2019-05-26T04:15:24.373Z,21.60
2019-05-26T04:16:24.357Z,20.90
2019-05-26T04:17:24.399Z,22.70
2019-05-26T04:18:24.325Z,21.30
2019-05-26T04:19:24.334Z,21.90
2019-05-26T04:20:24.327Z,21.80
2019-05-26T04:21:24.309Z,22.70
2019-05-26T04:22:24.314Z,22.50
2019-05-26T04:23:24.274Z,22.20
2019-05-26T04:24:24.258Z,23.00
2019-05-26T04:25:24.311Z,21.50
2019-05-26T04:26:24.238Z,23.30
2019-05-26T04:27:24.772Z,23.00
2019-05-26T04:28:24.245Z,23.10
2019-05-26T04:29:24.207Z,23.40
2019-05-26T04:30:24.183Z,23.10
2019-05-26T04:31:24.174Z,23.30
2019-05-26T04:32:24.272Z,23.90
2019-05-26T04:33:24.151Z,23.10
2019-05-26T04:34:24.143Z,24.10
2019-05-26T04:35:24.170Z,22.90
2019-05-26T04:36:24.120Z,22.60
2019-05-26T04:37:24.137Z,24.70
2019-05-26T04:38:24.121Z,24.40
2019-05-26T04:39:24.090Z,24.20
2019-05-26T04:40:27.253Z,23.80
2019-05-26T04:41:24.072Z,23.70
2019-05-26T04:42:24.778Z,23.50
2019-05-26T04:43:24.055Z,23.10
2019-05-26T04:44:24.033Z,23.70
2019-05-26T04:45:24.057Z,23.40
2019-05-26T04:46:24.048Z,23.50
2019-05-26T04:47:24.038Z,23.40
2019-05-26T04:48:24.025Z,24.20
2019-05-26T04:49:24.099Z,22.70
2019-05-26T04:50:23.970Z,23.50
2019-05-26T04:51:23.964Z,23.90
2019-05-26T04:52:25.786Z,23.60
2019-05-26T04:53:23.938Z,24.10
2019-05-26T04:54:23.920Z,23.10
2019-05-26T04:55:23.950Z,23.70
2019-05-26T04:56:23.923Z,23.20
2019-05-26T04:57:23.915Z,22.60
2019-05-26T04:58:23.898Z,24.00
2019-05-26T04:59:23.885Z,23.40
2019-05-26T05:00:23.859Z,23.00
2019-05-26T05:01:23.846Z,23.80
2019-05-26T05:02:23.862Z,23.80
2019-05-26T05:03:23.836Z,23.50
2019-05-26T05:04:23.806Z,23.50
2019-05-26T05:05:23.844Z,23.10
2019-05-26T05:06:23.798Z,23.10
2019-05-26T05:07:28.110Z,23.70
2019-05-26T05:08:23.786Z,23.80
2019-05-26T05:09:23.761Z,24.50
2019-05-26T05:10:23.789Z,24.40
2019-05-26T05:11:23.730Z,25.00
2019-05-26T05:12:24.302Z,24.80
2019-05-26T05:13:25.042Z,24.90
2019-05-26T05:14:23.727Z,24.70
2019-05-26T05:15:23.698Z,25.70
2019-05-26T05:16:23.668Z,26.20
2019-05-26T05:17:23.686Z,27.00
2019-05-26T05:18:23.720Z,26.50
2019-05-26T05:19:23.688Z,26.50
2019-05-26T05:20:23.648Z,28.00
2019-05-26T05:21:23.657Z,27.90
2019-05-26T05:22:23.678Z,28.40
2019-05-26T05:23:23.596Z,27.00
2019-05-26T05:24:23.608Z,27.70
2019-05-26T05:25:23.617Z,27.50
2019-05-26T05:26:23.566Z,28.20
2019-05-26T05:27:23.612Z,28.20
2019-05-26T05:28:23.582Z,29.80
2019-05-26T05:29:23.537Z,29.50
2019-05-26T05:30:23.533Z,30.10
2019-05-26T05:31:23.498Z,30.30
2019-05-26T05:32:23.526Z,29.50
2019-05-26T05:33:23.519Z,29.50
2019-05-26T05:34:23.470Z,31.00
2019-05-26T05:35:23.452Z,32.90
2019-05-26T05:36:23.449Z,30.30
2019-05-26T05:37:25.245Z,33.20
2019-05-26T05:38:23.462Z,33.10
2019-05-26T05:39:23.456Z,32.40
2019-05-26T05:40:23.407Z,33.10
2019-05-26T05:41:23.393Z,32.10
2019-05-26T05:42:23.453Z,33.50
2019-05-26T05:43:23.397Z,33.30
2019-05-26T05:44:23.366Z,32.60
2019-05-26T05:45:23.364Z,33.90
2019-05-26T05:46:23.350Z,30.70
2019-05-26T05:47:23.327Z,32.70
2019-05-26T05:48:23.340Z,33.20
2019-05-26T05:49:23.312Z,33.20
2019-05-26T05:50:23.294Z,32.50
2019-05-26T05:51:23.281Z,33.90
2019-05-26T05:52:23.319Z,34.80
2019-05-26T05:53:23.788Z,32.60
2019-05-26T05:54:23.261Z,32.10
2019-05-26T05:55:23.428Z,33.30
2019-05-26T05:56:23.228Z,31.80
2019-05-26T05:57:23.331Z,33.00
2019-05-26T05:58:23.235Z,31.80
2019-05-26T05:59:23.264Z,33.50
2019-05-26T06:00:23.176Z,31.20
2019-05-26T06:01:23.228Z,32.80
2019-05-26T06:02:23.154Z,32.00
2019-05-26T06:03:23.177Z,30.20
2019-05-26T06:04:23.207Z,32.00
2019-05-26T06:05:23.113Z,33.70
2019-05-26T06:06:23.150Z,32.00
2019-05-26T06:07:23.097Z,31.60
2019-05-26T06:08:23.128Z,31.00
2019-05-26T06:09:23.118Z,31.00
2019-05-26T06:10:23.108Z,31.00
2019-05-26T06:11:23.085Z,33.40
2019-05-26T06:12:23.050Z,31.80
2019-05-26T06:13:23.059Z,31.10
2019-05-26T06:14:23.027Z,31.10
2019-05-26T06:15:23.010Z,32.50
2019-05-26T06:16:23.007Z,32.90
2019-05-26T06:17:23.002Z,31.90
2019-05-26T06:18:23.802Z,31.90
2019-05-26T06:19:23.006Z,30.50
2019-05-26T06:20:22.998Z,33.40
2019-05-26T06:21:22.998Z,31.70
2019-05-26T06:22:22.943Z,32.80
2019-05-26T06:23:24.805Z,33.90
2019-05-26T06:24:22.910Z,33.40
2019-05-26T06:25:22.901Z,32.60
2019-05-26T06:26:22.891Z,33.40
2019-05-26T06:27:23.033Z,34.00
2019-05-26T06:28:22.938Z,33.30
2019-05-26T06:29:22.862Z,35.30
2019-05-26T06:30:22.937Z,33.40
2019-05-26T06:31:22.905Z,33.10
2019-05-26T06:32:22.826Z,32.60
2019-05-26T06:33:22.833Z,33.60
2019-05-26T06:34:22.795Z,34.90
2019-05-26T06:35:22.792Z,34.90
2019-05-26T06:36:22.784Z,33.40
2019-05-26T06:37:22.786Z,35.60
2019-05-26T06:38:22.891Z,35.40
2019-05-26T06:39:22.813Z,35.10
2019-05-26T06:40:22.728Z,36.30
2019-05-26T06:41:32.953Z,34.60
2019-05-26T06:42:23.716Z,38.70
2019-05-26T06:43:22.782Z,36.10
2019-05-26T06:44:22.690Z,34.40
2019-05-26T06:45:22.728Z,36.40
2019-05-26T06:46:22.715Z,36.20
2019-05-26T06:47:22.657Z,36.10
2019-05-26T06:48:26.589Z,35.60
2019-05-26T06:49:22.711Z,35.40
2019-05-26T06:50:22.643Z,37.50
2019-05-26T06:51:22.663Z,37.00
2019-05-26T06:52:22.597Z,35.80
2019-05-26T06:53:22.670Z,35.90
2019-05-26T06:54:22.575Z,36.00
2019-05-26T06:55:22.596Z,36.10
2019-05-26T06:56:22.555Z,34.30
2019-05-26T06:57:22.537Z,34.80
2019-05-26T06:58:24.392Z,34.20
2019-05-26T06:59:22.533Z,33.70
2019-05-26T07:00:22.516Z,33.30
2019-05-26T07:01:22.505Z,33.10
2019-05-26T07:02:22.524Z,31.90
2019-05-26T07:03:23.345Z,31.90
2019-05-26T07:04:22.472Z,32.90
2019-05-26T07:05:22.461Z,33.40
2019-05-26T07:06:22.445Z,31.90
2019-05-26T07:07:22.432Z,33.80
2019-05-26T07:08:23.299Z,31.40
2019-05-26T07:09:22.408Z,31.20
2019-05-26T07:10:22.401Z,29.80
2019-05-26T07:11:22.383Z,30.60
2019-05-26T07:12:22.455Z,32.20
2019-05-26T07:13:23.354Z,30.50
2019-05-26T07:14:22.355Z,30.60
2019-05-26T07:15:22.341Z,30.20
2019-05-26T07:16:36.925Z,31.30
2019-05-26T07:17:23.383Z,30.90
2019-05-26T07:18:22.373Z,31.30
2019-05-26T07:19:22.295Z,30.40
2019-05-26T07:20:22.341Z,31.70
2019-05-26T07:21:22.310Z,30.40
2019-05-26T07:22:22.262Z,31.30
2019-05-26T07:23:22.319Z,31.30
2019-05-26T07:24:22.242Z,31.20
2019-05-26T07:25:22.261Z,31.40
2019-05-26T07:26:22.214Z,31.40
2019-05-26T07:27:22.305Z,30.00
2019-05-26T07:28:22.229Z,31.00
2019-05-26T07:29:22.198Z,30.10
2019-05-26T07:30:23.535Z,32.50
2019-05-26T07:31:22.204Z,32.30
2019-05-26T07:32:22.157Z,31.10
2019-05-26T07:33:22.175Z,28.80
2019-05-26T07:34:22.130Z,29.50
2019-05-26T07:35:22.120Z,28.20
2019-05-26T07:36:22.145Z,28.30
2019-05-26T07:37:22.091Z,29.30
2019-05-26T07:38:22.126Z,29.50
2019-05-26T07:39:22.075Z,28.80
2019-05-26T07:40:22.070Z,28.80
2019-05-26T07:41:22.078Z,29.60
2019-05-26T07:42:22.085Z,29.20
2019-05-26T07:43:27.858Z,30.60
2019-05-26T07:44:22.015Z,29.10
2019-05-26T07:45:22.066Z,28.40
2019-05-26T07:46:22.003Z,28.50
2019-05-26T07:47:21.994Z,31.10
2019-05-26T07:48:21.997Z,31.50
2019-05-26T07:49:22.013Z,30.90
2019-05-26T07:50:21.946Z,30.80
2019-05-26T07:51:21.938Z,29.90
2019-05-26T07:52:21.934Z,32.10
2019-05-26T07:53:21.954Z,31.00
2019-05-26T07:54:25.441Z,28.70
2019-05-26T07:55:21.933Z,30.00
2019-05-26T07:56:21.891Z,30.10
2019-05-26T07:57:21.872Z,29.80
2019-05-26T07:58:21.926Z,30.70
2019-05-26T07:59:21.849Z,31.90
2019-05-26T08:00:21.866Z,30.80
2019-05-26T08:01:24.284Z,30.50
2019-05-26T08:02:21.822Z,30.00
2019-05-26T08:03:22.850Z,30.60
2019-05-26T08:04:21.794Z,30.60
2019-05-26T08:05:21.784Z,29.50
2019-05-26T08:06:21.778Z,30.50
2019-05-26T08:07:23.113Z,30.30
2019-05-26T08:08:21.810Z,29.40
2019-05-26T08:09:21.737Z,28.40
2019-05-26T08:10:21.741Z,27.60
2019-05-26T08:11:21.721Z,27.60
2019-05-26T08:12:26.850Z,27.00
2019-05-26T08:13:22.714Z,28.90
2019-05-26T08:14:21.677Z,27.20
2019-05-26T08:15:21.698Z,28.00
2019-05-26T08:16:21.747Z,26.50
2019-05-26T08:17:21.650Z,26.50
2019-05-26T08:18:25.833Z,28.50
2019-05-26T08:19:21.633Z,28.50
2019-05-26T08:20:21.646Z,26.70
2019-05-26T08:21:21.604Z,27.30
2019-05-26T08:22:21.589Z,27.60
2019-05-26T08:23:21.583Z,27.80
2019-05-26T08:24:25.197Z,27.00
2019-05-26T08:25:21.597Z,27.40
2019-05-26T08:26:21.554Z,28.20
2019-05-26T08:27:21.546Z,27.20
2019-05-26T08:28:21.552Z,26.40
2019-05-26T08:29:24.635Z,25.60
2019-05-26T08:30:21.513Z,25.10
2019-05-26T08:31:21.485Z,24.10
2019-05-26T08:32:21.485Z,22.60
2019-05-26T08:33:21.469Z,22.80
2019-05-26T08:34:21.577Z,24.70
2019-05-26T08:35:21.460Z,26.50
2019-05-26T08:36:21.453Z,25.40
2019-05-26T08:37:21.417Z,25.80
2019-05-26T08:38:21.412Z,27.00
2019-05-26T08:39:21.451Z,27.80
2019-05-26T08:40:21.424Z,26.60
2019-05-26T08:41:21.393Z,26.70
2019-05-26T08:42:27.204Z,25.10
2019-05-26T08:43:22.381Z,26.00
2019-05-26T08:44:21.378Z,24.90
2019-05-26T08:45:22.330Z,25.90
2019-05-26T08:46:21.340Z,24.50
2019-05-26T08:47:21.308Z,25.10
2019-05-26T08:48:21.299Z,25.60
2019-05-26T08:49:21.335Z,25.60
2019-05-26T08:50:21.271Z,25.60
2019-05-26T08:51:21.265Z,26.70
2019-05-26T08:52:21.262Z,25.80
2019-05-26T08:53:21.241Z,25.40
2019-05-26T08:54:22.872Z,25.80
2019-05-26T08:55:21.247Z,27.50
2019-05-26T08:56:21.207Z,25.50
2019-05-26T08:57:21.199Z,26.80
2019-05-26T08:58:21.222Z,23.20
2019-05-26T08:59:21.211Z,24.30
2019-05-26T09:00:21.206Z,23.70
2019-05-26T09:01:21.171Z,23.20
2019-05-26T09:02:21.186Z,22.60
2019-05-26T09:03:21.134Z,24.10
2019-05-26T09:04:21.150Z,23.80
2019-05-26T09:05:21.122Z,21.90
2019-05-26T09:06:21.101Z,22.50
2019-05-26T09:07:21.083Z,22.80
2019-05-26T09:08:21.072Z,23.40
2019-05-26T09:09:21.134Z,23.00
2019-05-26T09:10:21.054Z,22.10
2019-05-26T09:11:21.049Z,22.10
2019-05-26T09:12:21.044Z,22.30
2019-05-26T09:13:21.030Z,20.90
2019-05-26T09:14:21.062Z,23.30
2019-05-26T09:15:21.002Z,23.60
2019-05-26T09:16:21.057Z,22.70
2019-05-26T09:17:21.024Z,23.60
2019-05-26T09:18:20.999Z,23.80
2019-05-26T09:19:24.076Z,24.00
2019-05-26T09:20:20.955Z,22.60
2019-05-26T09:21:20.951Z,21.60
2019-05-26T09:22:20.970Z,21.50
2019-05-26T09:23:20.917Z,22.50
2019-05-26T09:24:20.958Z,22.50
2019-05-26T09:25:20.906Z,21.70
2019-05-26T09:26:20.906Z,21.50
2019-05-26T09:27:20.883Z,21.60
2019-05-26T09:28:20.862Z,20.50
2019-05-26T09:29:28.571Z,21.00
2019-05-26T09:30:20.840Z,21.20
2019-05-26T09:31:20.829Z,22.10
2019-05-26T09:32:20.849Z,20.60
2019-05-26T09:33:20.814Z,20.50
2019-05-26T09:34:20.884Z,20.20
2019-05-26T09:35:20.792Z,20.80
2019-05-26T09:36:20.769Z,20.00
2019-05-26T09:37:20.759Z,19.30
2019-05-26T09:38:20.839Z,21.50
2019-05-26T09:39:21.361Z,20.40
2019-05-26T09:40:20.733Z,21.80
2019-05-26T09:41:20.742Z,18.70
2019-05-26T09:42:22.504Z,19.30
2019-05-26T09:43:20.693Z,19.20
2019-05-26T09:44:20.695Z,18.80
2019-05-26T09:45:20.714Z,18.20
2019-05-26T09:46:20.670Z,18.90
2019-05-26T09:47:20.640Z,19.30
2019-05-26T09:48:20.631Z,18.70
2019-05-26T09:49:20.650Z,17.70
2019-05-26T09:50:20.619Z,18.00
2019-05-26T09:51:20.642Z,20.10
2019-05-26T09:52:20.595Z,20.00
2019-05-26T09:53:20.604Z,18.90
2019-05-26T09:54:20.607Z,18.80
2019-05-26T09:55:20.557Z,18.40
2019-05-26T09:56:20.549Z,18.90
2019-05-26T09:57:20.569Z,18.20
2019-05-26T09:58:20.709Z,17.10
2019-05-26T09:59:20.550Z,16.70
2019-05-26T10:00:20.496Z,16.50
2019-05-26T10:01:20.488Z,17.50
2019-05-26T10:02:20.478Z,16.90
2019-05-26T10:03:20.522Z,16.10
2019-05-26T10:04:20.492Z,15.60
2019-05-26T10:05:20.455Z,15.40
2019-05-26T10:06:20.482Z,15.60
2019-05-26T10:07:20.420Z,16.30
2019-05-26T10:08:20.416Z,16.60
2019-05-26T10:09:20.434Z,15.60
2019-05-26T10:10:20.411Z,15.00
2019-05-26T10:11:20.408Z,15.10
2019-05-26T10:12:20.374Z,16.20
2019-05-26T10:13:31.429Z,14.90
2019-05-26T10:14:22.385Z,15.30
2019-05-26T10:15:20.331Z,15.50
2019-05-26T10:16:20.329Z,15.00
2019-05-26T10:17:23.164Z,16.00
2019-05-26T10:18:20.303Z,15.30
2019-05-26T10:19:20.314Z,15.70
2019-05-26T10:20:23.065Z,14.90
2019-05-26T10:21:20.287Z,13.80
2019-05-26T10:22:20.289Z,14.00
2019-05-26T10:23:20.250Z,14.70
2019-05-26T10:24:20.327Z,15.30
2019-05-26T10:25:20.264Z,15.20
2019-05-26T10:26:20.257Z,14.50
2019-05-26T10:27:20.238Z,15.90
2019-05-26T10:28:20.213Z,14.80
2019-05-26T10:29:20.929Z,15.00
2019-05-26T10:30:20.221Z,14.80
2019-05-26T10:31:20.177Z,15.40
2019-05-26T10:32:20.221Z,14.60
2019-05-26T10:33:20.143Z,14.30
2019-05-26T10:34:20.189Z,13.90
2019-05-26T10:35:20.138Z,14.70
2019-05-26T10:36:20.128Z,13.70
2019-05-26T10:37:20.098Z,15.10
2019-05-26T10:38:20.100Z,13.80
2019-05-26T10:39:20.112Z,13.00
2019-05-26T10:40:20.072Z,13.50
2019-05-26T10:41:20.093Z,12.70
2019-05-26T10:42:20.058Z,13.60
2019-05-26T10:43:20.032Z,12.20
2019-05-26T10:44:20.085Z,12.80
2019-05-26T10:45:20.011Z,12.60
2019-05-26T10:46:20.019Z,13.80
2019-05-26T10:47:20.084Z,12.90
2019-05-26T10:48:19.982Z,13.50
2019-05-26T10:49:21.859Z,12.60
2019-05-26T10:50:19.958Z,13.00
2019-05-26T10:51:19.946Z,12.60
2019-05-26T10:52:20.088Z,13.80
2019-05-26T10:53:19.920Z,13.20
2019-05-26T10:54:20.843Z,13.40
2019-05-26T10:55:19.923Z,13.90
2019-05-26T10:56:19.901Z,13.50
2019-05-26T10:57:19.903Z,13.90
2019-05-26T10:58:19.889Z,13.30
2019-05-26T10:59:20.883Z,15.20
2019-05-26T11:00:19.892Z,13.40
2019-05-26T11:01:19.845Z,12.90
2019-05-26T11:02:19.828Z,12.60
2019-05-26T11:03:19.809Z,12.40
2019-05-26T11:04:21.368Z,13.60
2019-05-26T11:05:19.826Z,12.60
2019-05-26T11:06:19.785Z,13.70
2019-05-26T11:07:19.773Z,13.00
2019-05-26T11:08:19.762Z,12.80
2019-05-26T11:09:20.358Z,13.10
2019-05-26T11:10:19.811Z,13.30
2019-05-26T11:11:19.846Z,12.80
2019-05-26T11:12:19.789Z,12.70
2019-05-26T11:13:19.720Z,12.20
2019-05-26T11:14:19.727Z,13.30
2019-05-26T11:15:19.697Z,12.60
2019-05-26T11:16:19.670Z,11.60
2019-05-26T11:17:19.659Z,10.80
2019-05-26T11:18:19.652Z,11.70
2019-05-26T11:19:19.719Z,11.30
2019-05-26T11:20:19.643Z,11.40
2019-05-26T11:21:19.653Z,12.20
2019-05-26T11:22:19.615Z,12.20
2019-05-26T11:23:19.603Z,12.20
2019-05-26T11:24:19.749Z,11.40
2019-05-26T11:25:19.577Z,10.90
2019-05-26T11:26:19.552Z,11.60
2019-05-26T11:27:19.558Z,11.40
2019-05-26T11:28:19.580Z,11.50
2019-05-26T11:29:19.563Z,10.50
2019-05-26T11:30:19.529Z,10.70
2019-05-26T11:31:19.568Z,10.40
2019-05-26T11:32:19.495Z,10.50
2019-05-26T11:33:19.524Z,9.70
2019-05-26T11:34:21.382Z,10.40
2019-05-26T11:35:19.499Z,10.50
2019-05-26T11:36:19.460Z,10.10
2019-05-26T11:37:19.451Z,9.60
2019-05-26T11:38:19.443Z,10.10
2019-05-26T11:39:20.365Z,10.00
2019-05-26T11:40:19.419Z,10.00
2019-05-26T11:41:19.420Z,10.60
2019-05-26T11:42:19.397Z,10.60
2019-05-26T11:43:19.382Z,9.90
2019-05-26T11:44:19.418Z,11.30
2019-05-26T11:45:19.358Z,9.60
2019-05-26T11:46:19.368Z,10.60
2019-05-26T11:47:19.340Z,10.60
2019-05-26T11:48:19.323Z,10.80
2019-05-26T11:49:19.328Z,10.70
2019-05-26T11:50:20.858Z,10.60
2019-05-26T11:51:19.290Z,11.20
2019-05-26T11:52:20.368Z,10.90
2019-05-26T11:53:19.288Z,11.70
2019-05-26T11:54:19.377Z,12.10
2019-05-26T11:55:19.303Z,12.70
2019-05-26T11:56:19.272Z,12.30
2019-05-26T11:57:19.286Z,12.50
2019-05-26T11:58:19.225Z,12.30
2019-05-26T11:59:19.222Z,13.10
2019-05-26T12:00:19.876Z,13.00
2019-05-26T12:01:22.677Z,13.40
2019-05-26T12:02:19.181Z,12.90
2019-05-26T12:03:19.169Z,12.40
2019-05-26T12:04:20.105Z,12.10
2019-05-26T12:05:19.164Z,11.90
2019-05-26T12:06:19.130Z,12.10
2019-05-26T12:07:19.114Z,11.80
2019-05-26T12:08:19.140Z,12.90
2019-05-26T12:09:19.113Z,13.00
2019-05-26T12:10:19.897Z,13.00
2019-05-26T12:11:19.145Z,12.80
2019-05-26T12:12:19.060Z,13.90
2019-05-26T12:13:19.052Z,12.70
2019-05-26T12:14:33.638Z,12.00
2019-05-26T12:15:22.893Z,13.50
2019-05-26T12:16:19.046Z,13.40
2019-05-26T12:17:19.016Z,12.90
2019-05-26T12:18:18.990Z,13.00
2019-05-26T12:19:18.986Z,12.20
2019-05-26T12:20:22.125Z,12.10
2019-05-26T12:21:18.963Z,11.70
2019-05-26T12:22:18.961Z,11.10
2019-05-26T12:23:18.941Z,10.30
2019-05-26T12:24:18.920Z,12.10
2019-05-26T12:25:18.967Z,12.30
2019-05-26T12:26:18.982Z,12.00
2019-05-26T12:27:18.928Z,9.60
2019-05-26T12:28:18.928Z,11.60
2019-05-26T12:29:18.885Z,10.50
2019-05-26T12:30:18.902Z,11.00
2019-05-26T12:31:18.848Z,11.10
2019-05-26T12:32:18.879Z,11.00
2019-05-26T12:33:18.845Z,11.30
2019-05-26T12:34:18.827Z,10.30
2019-05-26T12:35:18.861Z,10.90
2019-05-26T12:36:18.826Z,12.30
2019-05-26T12:37:18.780Z,10.90
2019-05-26T12:38:18.789Z,10.30
2019-05-26T12:39:18.771Z,9.90
2019-05-26T12:40:19.388Z,9.20
2019-05-26T12:41:18.774Z,9.30
2019-05-26T12:42:18.742Z,8.60
2019-05-26T12:43:18.756Z,8.70
2019-05-26T12:44:18.711Z,9.70
2019-05-26T12:45:20.380Z,10.50
2019-05-26T12:46:18.690Z,10.10
2019-05-26T12:47:18.769Z,10.10
2019-05-26T12:48:18.667Z,9.50
2019-05-26T12:49:18.658Z,9.60
2019-05-26T12:50:19.388Z,9.90
2019-05-26T12:51:18.639Z,9.70
2019-05-26T12:52:18.671Z,9.30
2019-05-26T12:53:18.621Z,9.70